Latest METAR Data

Below are the latest METARs ("Meteorological Services to Airmen Reports"), for RNAS Culdrose and Newquay Airport.

EGDR - RNAS Culdrose
Distance from station: SW 6mi, 9km
Updated: Tue, 01-Dec-2020 8:50am GMT
NOT Current
Mostly Cloudy
Mostly Cloudy
 Wind from NE
Wind: NE 8 mph , 13 km/h
Temperature: 43°F , 6°C
Wind Chill: 38°F , 3°C
Dew Point: 39°F , 4°C
Humidity: 87%
Barometer: 30.36 inHg , 1028 hPa
Clouds: Mostly Cloudy
Visibility: 6 miles , 10 km
Cloud details: Partly Cloudy 2500 ft
Mostly Cloudy 6000 ft
2020/12/01 08:50 EGDR 010850Z 05007KT 9999 SCT025 BKN060 06/04 Q1028 NOSIG BLU B LU
EGHQ - Newquay Airport
Distance from station: NE 21mi, 34km
Updated: Tue, 01-Dec-2020 10:50am GMT
Few Clouds
Few Clouds
 Wind from NNE
Wind: NNE 8 mph , 13 km/h
Temperature: 48°F , 9°C
Wind Chill: 44°F , 7°C
Dew Point: 43°F , 6°C
Humidity: 82%
Barometer: 30.39 inHg , 1029 hPa
Clouds: Few Clouds
Visibility: 6 miles , 10 km
Cloud details: Few Clouds 2000 ft
2020/12/01 10:50 EGHQ 011050Z 02007KT 9999 FEW020 09/06 Q1029
 
EGTE - Exeter Airport
Distance from station: ENE 88mi, 141km
Updated: Tue, 01-Dec-2020 10:50am GMT
Clear
Clear
 Wind from varies
Wind: varies 2 mph , 4 km/h
Temperature: 45°F , 7°C
Dew Point: 41°F , 5°C
Humidity: 87%
Barometer: 30.39 inHg , 1029 hPa
Summary: Clear
Visibility: greater than 7 miles , 10 km
2020/12/01 10:50 EGTE 011050Z VRB02KT CAVOK 07/05 Q1029
EGHE - St Marys, IOS
Distance from station: W 51mi, 82km
Updated: Tue, 01-Dec-2020 10:50am GMT
Few Clouds
Few Clouds
 Wind from N
Wind: N 12 mph , 19 km/h
Temperature: 52°F , 11°C
Dew Point: 43°F , 6°C
Humidity: 72%
Barometer: 30.42 inHg , 1030 hPa
Clouds: Few Clouds
Visibility: 6 miles , 10 km
Cloud details: Few Clouds 3000 ft
2020/12/01 10:50 EGHE 011050Z 01010KT 9999 FEW030 11/06 Q1030

Metar display script from Saratoga-Weather.org

 

 

UK - WEATHER STATION TOPSITES - UK World Weather Websites

Copyright © Carnkie Weather 2009 - 2020.